sensor_id;sensor_type;location;lat;lon;timestamp;P1;P2;P0
74428;PMS5003;62860;52.134;23.714;2022-08-25T00:03:09;21.2;18;13.2
74428;PMS5003;62860;52.134;23.714;2022-08-25T00:07:54;19.4;17;12.8
74428;PMS5003;62860;52.134;23.714;2022-08-25T00:13:16;21.8;18.2;13.6
74428;PMS5003;62860;52.134;23.714;2022-08-25T00:18:32;20.4;18.2;13.4
74428;PMS5003;62860;52.134;23.714;2022-08-25T00:23:32;22.2;19.8;13.8
74428;PMS5003;62860;52.134;23.714;2022-08-25T00:28:16;22.2;19;14
74428;PMS5003;62860;52.134;23.714;2022-08-25T00:32:54;24.4;20.4;14.6
74428;PMS5003;62860;52.134;23.714;2022-08-25T00:37:54;21.4;19.6;14.6
74428;PMS5003;62860;52.134;23.714;2022-08-25T00:43:18;26.8;22;15.6
74428;PMS5003;62860;52.134;23.714;2022-08-25T00:47:54;27.4;24.2;17.2
74428;PMS5003;62860;52.134;23.714;2022-08-25T00:53:18;24.6;22.6;16
74428;PMS5003;62860;52.134;23.714;2022-08-25T00:58:27;29.8;25.8;16.4
74428;PMS5003;62860;52.134;23.714;2022-08-25T01:03:25;28.4;24.4;16.2
74428;PMS5003;62860;52.134;23.714;2022-08-25T01:08:17;26.8;22.2;15.4
74428;PMS5003;62860;52.134;23.714;2022-08-25T01:13:39;24.2;20.6;14.4
74428;PMS5003;62860;52.134;23.714;2022-08-25T01:18:28;22.2;20.2;14.2
74428;PMS5003;62860;52.134;23.714;2022-08-25T01:23:16;22.4;19.2;14
74428;PMS5003;62860;52.134;23.714;2022-08-25T01:28:04;22.2;19;13.2
74428;PMS5003;62860;52.134;23.714;2022-08-25T01:32:54;20.2;18.2;13.4
74428;PMS5003;62860;52.134;23.714;2022-08-25T01:38:28;20.4;17.8;12.8
74428;PMS5003;62860;52.134;23.714;2022-08-25T01:43:36;18.2;15.8;12.4
74428;PMS5003;62860;52.134;23.714;2022-08-25T01:48:34;18.8;17;12.4
74428;PMS5003;62860;52.134;23.714;2022-08-25T01:53:25;18.2;16.2;12.6
74428;PMS5003;62860;52.134;23.714;2022-08-25T01:58:27;21.8;19.6;14.2
74428;PMS5003;62860;52.134;23.714;2022-08-25T02:03:04;19.2;16.6;12.6
74428;PMS5003;62860;52.134;23.714;2022-08-25T02:08:20;18.8;17.2;12.8
74428;PMS5003;62860;52.134;23.714;2022-08-25T02:12:54;15.4;14.4;11.6
74428;PMS5003;62860;52.134;23.714;2022-08-25T02:18:10;16;13.4;9.6
74428;PMS5003;62860;52.134;23.714;2022-08-25T02:22:54;15.6;13.4;9.6
74428;PMS5003;62860;52.134;23.714;2022-08-25T02:28:34;20.8;18.4;11.6
74428;PMS5003;62860;52.134;23.714;2022-08-25T02:33:32;21.8;16;12
74428;PMS5003;62860;52.134;23.714;2022-08-25T02:38:16;23.8;19.6;14.2
74428;PMS5003;62860;52.134;23.714;2022-08-25T02:43:16;25.6;21.8;16
74428;PMS5003;62860;52.134;23.714;2022-08-25T02:48:34;28.8;21.4;16.4
74428;PMS5003;62860;52.134;23.714;2022-08-25T02:53:36;24.6;21.6;15
74428;PMS5003;62860;52.134;23.714;2022-08-25T02:57:54;25.2;20.4;15.2
74428;PMS5003;62860;52.134;23.714;2022-08-25T03:03:00;24.4;21.4;15.4
74428;PMS5003;62860;52.134;23.714;2022-08-25T03:07:54;24;21;14.6
74428;PMS5003;62860;52.134;23.714;2022-08-25T03:13:04;25.4;21.2;15.2
74428;PMS5003;62860;52.134;23.714;2022-08-25T03:18:12;21;20;15
74428;PMS5003;62860;52.134;23.714;2022-08-25T03:23:12;22.6;19.4;13.2
74428;PMS5003;62860;52.134;23.714;2022-08-25T03:28:26;20.2;17;12.4
74428;PMS5003;62860;52.134;23.714;2022-08-25T03:33:25;19.6;16.6;12.4
74428;PMS5003;62860;52.134;23.714;2022-08-25T03:38:14;17.8;16.4;12.2
74428;PMS5003;62860;52.134;23.714;2022-08-25T03:43:36;19.6;16.8;13.6
74428;PMS5003;62860;52.134;23.714;2022-08-25T03:48:28;22.6;19.8;14.4
74428;PMS5003;62860;52.134;23.714;2022-08-25T03:53:06;18.6;16.8;12.6
74428;PMS5003;62860;52.134;23.714;2022-08-25T03:58:06;16.6;15.8;12.2
74428;PMS5003;62860;52.134;23.714;2022-08-25T04:02:54;20.2;16.2;11.8
74428;PMS5003;62860;52.134;23.714;2022-08-25T04:08:37;30;24.6;16.6
74428;PMS5003;62860;52.134;23.714;2022-08-25T04:13:20;48;36.4;23.2
74428;PMS5003;62860;52.134;23.714;2022-08-25T04:18:34;51.8;39.6;24.2
74428;PMS5003;62860;52.134;23.714;2022-08-25T04:23:22;44.2;34.8;22.6
74428;PMS5003;62860;52.134;23.714;2022-08-25T04:28:28;36;31.8;19.8
74428;PMS5003;62860;52.134;23.714;2022-08-25T04:33:14;33.2;29;19.2
74428;PMS5003;62860;52.134;23.714;2022-08-25T04:38:22;27;24.4;17
74428;PMS5003;62860;52.134;23.714;2022-08-25T04:42:54;21.4;19;13.6
74428;PMS5003;62860;52.134;23.714;2022-08-25T04:47:54;19.2;17;13
74428;PMS5003;62860;52.134;23.714;2022-08-25T04:53:04;17.6;14.8;11.8
74428;PMS5003;62860;52.134;23.714;2022-08-25T04:58:36;16.8;14.4;11.2
74428;PMS5003;62860;52.134;23.714;2022-08-25T05:03:22;17.6;13.6;10.6
74428;PMS5003;62860;52.134;23.714;2022-08-25T05:08:27;17.2;14.8;11
74428;PMS5003;62860;52.134;23.714;2022-08-25T05:13:04;12.6;11;8.8
74428;PMS5003;62860;52.134;23.714;2022-08-25T05:18:17;14.2;13.2;10.6
74428;PMS5003;62860;52.134;23.714;2022-08-25T05:23:24;14.2;12.4;10.6
74428;PMS5003;62860;52.134;23.714;2022-08-25T05:28:37;17.2;15.2;12.6
74428;PMS5003;62860;52.134;23.714;2022-08-25T05:33:12;14.2;12.6;10.6
74428;PMS5003;62860;52.134;23.714;2022-08-25T05:38:01;12.2;10.8;8.2
74428;PMS5003;62860;52.134;23.714;2022-08-25T05:42:54;10.4;9.6;6.8
74428;PMS5003;62860;52.134;23.714;2022-08-25T05:48:20;12.2;11.2;8
74428;PMS5003;62860;52.134;23.714;2022-08-25T05:52:54;12.4;10.8;8
74428;PMS5003;62860;52.134;23.714;2022-08-25T05:58:12;12.2;11.2;8.4
74428;PMS5003;62860;52.134;23.714;2022-08-25T06:03:24;13;11.8;8.8
74428;PMS5003;62860;52.134;23.714;2022-08-25T06:08:34;12.8;11.2;8.2
74428;PMS5003;62860;52.134;23.714;2022-08-25T06:13:20;10.2;9.2;7.2
74428;PMS5003;62860;52.134;23.714;2022-08-25T06:18:36;10.4;9.6;8.2
74428;PMS5003;62860;52.134;23.714;2022-08-25T06:23:24;13.4;10.6;8.2
74428;PMS5003;62860;52.134;23.714;2022-08-25T06:28:04;12.8;11;7.8
74428;PMS5003;62860;52.134;23.714;2022-08-25T06:33:04;12.4;10.2;7.4
74428;PMS5003;62860;52.134;23.714;2022-08-25T06:38:25;9.8;9.6;7.4
74428;PMS5003;62860;52.134;23.714;2022-08-25T06:43:23;10.8;10.2;8
74428;PMS5003;62860;52.134;23.714;2022-08-25T06:47:56;10.8;9.2;7.4
74428;PMS5003;62860;52.134;23.714;2022-08-25T06:53:22;12.8;9.8;7.4
74428;PMS5003;62860;52.134;23.714;2022-08-25T06:58:16;11.2;9.4;7.4
74428;PMS5003;62860;52.134;23.714;2022-08-25T07:02:54;10.2;9;6.6
74428;PMS5003;62860;52.134;23.714;2022-08-25T07:08:16;9.4;7.6;6
74428;PMS5003;62860;52.134;23.714;2022-08-25T07:13:22;9.8;8.8;6.8
74428;PMS5003;62860;52.134;23.714;2022-08-25T07:18:02;10;8.8;6.6
74428;PMS5003;62860;52.134;23.714;2022-08-25T07:22:54;8.8;7.4;6.2
74428;PMS5003;62860;52.134;23.714;2022-08-25T07:28:00;8.6;8;6.2
74428;PMS5003;62860;52.134;23.714;2022-08-25T07:33:34;7;5.8;4.4
74428;PMS5003;62860;52.134;23.714;2022-08-25T07:38:24;9.6;7;5.6
74428;PMS5003;62860;52.134;23.714;2022-08-25T07:43:16;6.2;6;4.8
74428;PMS5003;62860;52.134;23.714;2022-08-25T07:48:16;5.4;4.8;4
74428;PMS5003;62860;52.134;23.714;2022-08-25T07:53:38;5.6;5.2;4.8
74428;PMS5003;62860;52.134;23.714;2022-08-25T07:58:36;6.6;6;4.2
74428;PMS5003;62860;52.134;23.714;2022-08-25T08:03:16;6.8;5.6;4.6
74428;PMS5003;62860;52.134;23.714;2022-08-25T08:08:02;7.2;5.8;4.6
74428;PMS5003;62860;52.134;23.714;2022-08-25T08:13:02;6.8;5;3.8
74428;PMS5003;62860;52.134;23.714;2022-08-25T08:18:22;4.8;4.2;3.4
74428;PMS5003;62860;52.134;23.714;2022-08-25T08:23:09;6.8;4.2;3.4
74428;PMS5003;62860;52.134;23.714;2022-08-25T08:28:12;6.6;5;3.8
74428;PMS5003;62860;52.134;23.714;2022-08-25T08:33:26;4.8;4.3;3.3
74428;PMS5003;62860;52.134;23.714;2022-08-25T08:38:35;4.2;4.2;3.6
74428;PMS5003;62860;52.134;23.714;2022-08-25T08:43:24;6;4.4;3.4
74428;PMS5003;62860;52.134;23.714;2022-08-25T08:48:55;6;3.8;3
74428;PMS5003;62860;52.134;23.714;2022-08-25T08:53:40;5.2;4.2;3.8
74428;PMS5003;62860;52.134;23.714;2022-08-25T08:58:07;4.6;3.4;3
74428;PMS5003;62860;52.134;23.714;2022-08-25T09:03:03;4;2.8;2.2
74428;PMS5003;62860;52.134;23.714;2022-08-25T09:08:22;2;1.4;1
74428;PMS5003;62860;52.134;23.714;2022-08-25T09:13:14;1.2;1.2;0.8
74428;PMS5003;62860;52.134;23.714;2022-08-25T09:28:40;3.2;2.6;2.4
74428;PMS5003;62860;52.134;23.714;2022-08-25T09:33:19;2;1.6;1.2
74428;PMS5003;62860;52.134;23.714;2022-08-25T09:38:19;1.8;1.2;1.2
74428;PMS5003;62860;52.134;23.714;2022-08-25T09:48:33;1.8;1;1
74428;PMS5003;62860;52.134;23.714;2022-08-25T09:52:54;2.2;1.4;1.2
74428;PMS5003;62860;52.134;23.714;2022-08-25T09:58:12;1.8;1;1
74428;PMS5003;62860;52.134;23.714;2022-08-25T10:03:36;4;2.6;2.2
74428;PMS5003;62860;52.134;23.714;2022-08-25T10:08:50;3.4;2.4;1.4
74428;PMS5003;62860;52.134;23.714;2022-08-25T10:13:11;3.4;2;1.4
74428;PMS5003;62860;52.134;23.714;2022-08-25T10:18:19;4.6;2.6;2.2
74428;PMS5003;62860;52.134;23.714;2022-08-25T10:23:39;4.8;2.6;1.8
74428;PMS5003;62860;52.134;23.714;2022-08-25T10:28:44;4.2;2.8;2.8
74428;PMS5003;62860;52.134;23.714;2022-08-25T10:33:35;4.4;3.2;2.8
74428;PMS5003;62860;52.134;23.714;2022-08-25T10:38:03;2.8;2.6;2
74428;PMS5003;62860;52.134;23.714;2022-08-25T10:43:16;2.8;1.6;1.4
74428;PMS5003;62860;52.134;23.714;2022-08-25T10:47:58;2.4;2.2;1.6
74428;PMS5003;62860;52.134;23.714;2022-08-25T10:53:18;3.2;2.4;1.4
74428;PMS5003;62860;52.134;23.714;2022-08-25T10:58:06;3.2;2.2;2
74428;PMS5003;62860;52.134;23.714;2022-08-25T11:04:12;3;2.6;1.8
74428;PMS5003;62860;52.134;23.714;2022-08-25T11:08:35;2;1.2;1
74428;PMS5003;62860;52.134;23.714;2022-08-25T11:13:27;1.6;1.4;0.8
74428;PMS5003;62860;52.134;23.714;2022-08-25T11:18:42;2.8;1.2;0.8
74428;PMS5003;62860;52.134;23.714;2022-08-25T11:23:34;1;0.8;0.8
74428;PMS5003;62860;52.134;23.714;2022-08-25T11:29:02;1.2;1;0.8
74428;PMS5003;62860;52.134;23.714;2022-08-25T11:33:23;3.2;1.2;1.2
74428;PMS5003;62860;52.134;23.714;2022-08-25T11:43:46;1;0.8;0.6
74428;PMS5003;62860;52.134;23.714;2022-08-25T11:48:25;1.8;0.8;0.6
74428;PMS5003;62860;52.134;23.714;2022-08-25T11:53:35;1.8;1;0.6
74428;PMS5003;62860;52.134;23.714;2022-08-25T12:08:14;1.2;1;1
74428;PMS5003;62860;52.134;23.714;2022-08-25T12:13:25;1.8;0.6;0.6
74428;PMS5003;62860;52.134;23.714;2022-08-25T12:18:07;1;1;0.6
74428;PMS5003;62860;52.134;23.714;2022-08-25T12:23:04;2;1;0.6
74428;PMS5003;62860;52.134;23.714;2022-08-25T12:28:30;1;0.6;0.4
74428;PMS5003;62860;52.134;23.714;2022-08-25T12:33:42;1.2;1.2;0.8
74428;PMS5003;62860;52.134;23.714;2022-08-25T12:38:43;0.8;0.8;0.6
74428;PMS5003;62860;52.134;23.714;2022-08-25T12:43:12;2.2;1.4;0.8
74428;PMS5003;62860;52.134;23.714;2022-08-25T12:53:39;1.6;1;1
74428;PMS5003;62860;52.134;23.714;2022-08-25T12:59:41;1.2;0.8;0.8
74428;PMS5003;62860;52.134;23.714;2022-08-25T13:17:54;1.4;1.2;0.6
74428;PMS5003;62860;52.134;23.714;2022-08-25T13:23:15;1;0.4;0.4
74428;PMS5003;62860;52.134;23.714;2022-08-25T13:27:56;2.4;1.2;0.6
74428;PMS5003;62860;52.134;23.714;2022-08-25T13:33:36;1.6;1.2;0.8
74428;PMS5003;62860;52.134;23.714;2022-08-25T13:38:26;2;1.8;1.4
74428;PMS5003;62860;52.134;23.714;2022-08-25T13:43:05;2;1.3;1
74428;PMS5003;62860;52.134;23.714;2022-08-25T13:48:38;1.4;0.8;0.8
74428;PMS5003;62860;52.134;23.714;2022-08-25T13:53:20;1.6;1;0.8
74428;PMS5003;62860;52.134;23.714;2022-08-25T13:58:05;1.2;1.2;1
74428;PMS5003;62860;52.134;23.714;2022-08-25T14:02:54;1.6;0.6;0.4
74428;PMS5003;62860;52.134;23.714;2022-08-25T14:08:45;1.4;1.2;0.8
74428;PMS5003;62860;52.134;23.714;2022-08-25T14:13:16;1.6;1.4;0.6
74428;PMS5003;62860;52.134;23.714;2022-08-25T14:18:25;2.2;1.2;1
74428;PMS5003;62860;52.134;23.714;2022-08-25T14:23:37;1.4;1.2;0.8
74428;PMS5003;62860;52.134;23.714;2022-08-25T14:28:18;2;0.8;0.8
74428;PMS5003;62860;52.134;23.714;2022-08-25T14:33:35;1.4;1;0.6
74428;PMS5003;62860;52.134;23.714;2022-08-25T14:38:17;1.6;1.4;0.8
74428;PMS5003;62860;52.134;23.714;2022-08-25T14:43:20;1.6;1;0.4
74428;PMS5003;62860;52.134;23.714;2022-08-25T14:47:54;2;1.2;0.8
74428;PMS5003;62860;52.134;23.714;2022-08-25T14:53:16;10;8.2;5.6
74428;PMS5003;62860;52.134;23.714;2022-08-25T14:58:07;2.2;1.8;1.4
74428;PMS5003;62860;52.134;23.714;2022-08-25T15:03:35;2.4;1.6;1.4
74428;PMS5003;62860;52.134;23.714;2022-08-25T15:08:35;3.6;1.6;1
74428;PMS5003;62860;52.134;23.714;2022-08-25T15:12:54;1;0.6;0.4
74428;PMS5003;62860;52.134;23.714;2022-08-25T15:18:07;1.4;1.2;1
74428;PMS5003;62860;52.134;23.714;2022-08-25T15:22:56;0.8;0.6;0.6
74428;PMS5003;62860;52.134;23.714;2022-08-25T15:28:38;1.6;0.8;0.6
74428;PMS5003;62860;52.134;23.714;2022-08-25T15:33:16;1;0.8;0.6
74428;PMS5003;62860;52.134;23.714;2022-08-25T15:38:07;3.2;1.6;1.2
74428;PMS5003;62860;52.134;23.714;2022-08-25T15:42:54;1.4;0.8;0.2
74428;PMS5003;62860;52.134;23.714;2022-08-25T15:47:55;0.8;0.8;0.5
74428;PMS5003;62860;52.134;23.714;2022-08-25T15:53:11;2;1.4;0.8
74428;PMS5003;62860;52.134;23.714;2022-08-25T15:58:25;1.8;1.2;0.4
74428;PMS5003;62860;52.134;23.714;2022-08-25T16:03:29;2.8;1.8;1.4
74428;PMS5003;62860;52.134;23.714;2022-08-25T16:08:19;2.6;1.6;1.2
74428;PMS5003;62860;52.134;23.714;2022-08-25T16:12:55;3.2;1.8;1.2
74428;PMS5003;62860;52.134;23.714;2022-08-25T16:18:37;2;1.6;1.2
74428;PMS5003;62860;52.134;23.714;2022-08-25T16:23:39;1.2;0.6;0.4
74428;PMS5003;62860;52.134;23.714;2022-08-25T16:27:55;1.6;1;0.8
74428;PMS5003;62860;52.134;23.714;2022-08-25T16:32:55;2.2;1.6;1
74428;PMS5003;62860;52.134;23.714;2022-08-25T16:37:55;3.6;1;0.6
74428;PMS5003;62860;52.134;23.714;2022-08-25T16:43:39;2.2;1;0.8
74428;PMS5003;62860;52.134;23.714;2022-08-25T16:48:25;3.4;2;1.4
74428;PMS5003;62860;52.134;23.714;2022-08-25T16:53:39;2.2;1;0.8
74428;PMS5003;62860;52.134;23.714;2022-08-25T16:58:23;3.4;2.6;1.6
74428;PMS5003;62860;52.134;23.714;2022-08-25T17:03:17;4;2.8;1.6
74428;PMS5003;62860;52.134;23.714;2022-08-25T17:08:19;4.6;3.2;2.6
74428;PMS5003;62860;52.134;23.714;2022-08-25T17:13:25;6.8;4;2.6
74428;PMS5003;62860;52.134;23.714;2022-08-25T17:18:05;7.8;4.6;3
74428;PMS5003;62860;52.134;23.714;2022-08-25T17:23:05;7.4;4.8;3.2
74428;PMS5003;62860;52.134;23.714;2022-08-25T17:28:05;9.6;6.4;4.4
74428;PMS5003;62860;52.134;23.714;2022-08-25T17:33:39;11.6;6.4;4.2
74428;PMS5003;62860;52.134;23.714;2022-08-25T17:38:37;17.6;13;8.2
74428;PMS5003;62860;52.134;23.714;2022-08-25T17:43:17;22.2;18;12
74428;PMS5003;62860;52.134;23.714;2022-08-25T17:47:55;15.6;10.4;6.2
74428;PMS5003;62860;52.134;23.714;2022-08-25T17:53:35;27.6;22.8;14.2
74428;PMS5003;62860;52.134;23.714;2022-08-25T17:58:39;27.2;20.6;11.8
74428;PMS5003;62860;52.134;23.714;2022-08-25T18:02:55;20.2;14.6;8.6
74428;PMS5003;62860;52.134;23.714;2022-08-25T18:07:55;21;17.2;11.2
74428;PMS5003;62860;52.134;23.714;2022-08-25T18:12:55;26.4;20.8;11.6
74428;PMS5003;62860;52.134;23.714;2022-08-25T18:17:55;26.6;19;12.2
74428;PMS5003;62860;52.134;23.714;2022-08-25T18:23:07;25.2;18.6;12.4
74428;PMS5003;62860;52.134;23.714;2022-08-25T18:28:13;22.8;19.8;11.8
74428;PMS5003;62860;52.134;23.714;2022-08-25T18:33:13;24.4;19.4;12.2
74428;PMS5003;62860;52.134;23.714;2022-08-25T18:38:17;28.2;21;12.6
74428;PMS5003;62860;52.134;23.714;2022-08-25T18:43:37;27.6;22.6;14.2
74428;PMS5003;62860;52.134;23.714;2022-08-25T18:48:25;30.6;23.8;13.4
74428;PMS5003;62860;52.134;23.714;2022-08-25T18:53:41;26.2;20.2;12.4
74428;PMS5003;62860;52.134;23.714;2022-08-25T18:58:27;27.2;23.4;13
74428;PMS5003;62860;52.134;23.714;2022-08-25T19:03:17;41.6;32.4;20
74428;PMS5003;62860;52.134;23.714;2022-08-25T19:08:05;24;18.8;11.4
74428;PMS5003;62860;52.134;23.714;2022-08-25T19:13:23;17.6;13.6;9
74428;PMS5003;62860;52.134;23.714;2022-08-25T19:18:37;14.6;12.4;7.4
74428;PMS5003;62860;52.134;23.714;2022-08-25T19:23:25;16.8;12.2;7.8
74428;PMS5003;62860;52.134;23.714;2022-08-25T19:28:25;12.8;10;7.4
74428;PMS5003;62860;52.134;23.714;2022-08-25T19:33:21;13.4;10.2;7
74428;PMS5003;62860;52.134;23.714;2022-08-25T19:38:20;11.8;9;6.8
74428;PMS5003;62860;52.134;23.714;2022-08-25T19:43:18;14.4;11;7.8
74428;PMS5003;62860;52.134;23.714;2022-08-25T19:48:27;14.6;11.8;8.8
74428;PMS5003;62860;52.134;23.714;2022-08-25T19:53:05;20.2;16.8;12.4
74428;PMS5003;62860;52.134;23.714;2022-08-25T19:58:05;25.2;19;15
74428;PMS5003;62860;52.134;23.714;2022-08-25T20:03:04;21;16.2;10.6
74428;PMS5003;62860;52.134;23.714;2022-08-25T20:08:41;18.8;13.6;9.4
74428;PMS5003;62860;52.134;23.714;2022-08-25T20:13:25;19;14;9.4
74428;PMS5003;62860;52.134;23.714;2022-08-25T20:18:05;16.2;12.6;9.2
74428;PMS5003;62860;52.134;23.714;2022-08-25T20:23:05;19.2;13.6;9.2
74428;PMS5003;62860;52.134;23.714;2022-08-25T20:28:41;18.8;14.4;9.4
74428;PMS5003;62860;52.134;23.714;2022-08-25T20:33:39;27.2;22.4;15.6
74428;PMS5003;62860;52.134;23.714;2022-08-25T20:38:07;20.6;18.2;12.8
74428;PMS5003;62860;52.134;23.714;2022-08-25T20:43:05;16.4;12.8;9.6
74428;PMS5003;62860;52.134;23.714;2022-08-25T20:48:05;17.6;14.2;9.2
74428;PMS5003;62860;52.134;23.714;2022-08-25T20:53:27;15.8;11.6;9
74428;PMS5003;62860;52.134;23.714;2022-08-25T20:58:03;18;13;9
74428;PMS5003;62860;52.134;23.714;2022-08-25T21:03:13;15.6;12;9.2
74428;PMS5003;62860;52.134;23.714;2022-08-25T21:08:31;15.6;12.4;8.4
74428;PMS5003;62860;52.134;23.714;2022-08-25T21:13:39;18.2;14;10.2
74428;PMS5003;62860;52.134;23.714;2022-08-25T21:18:25;16.6;14.2;9.2
74428;PMS5003;62860;52.134;23.714;2022-08-25T21:23:39;18.4;15.4;10
74428;PMS5003;62860;52.134;23.714;2022-08-25T21:28:41;17.4;15;11
74428;PMS5003;62860;52.134;23.714;2022-08-25T21:32:55;17;14;10.2
74428;PMS5003;62860;52.134;23.714;2022-08-25T21:38:03;16.8;14.4;10
74428;PMS5003;62860;52.134;23.714;2022-08-25T21:43:27;18;14.6;10.8
74428;PMS5003;62860;52.134;23.714;2022-08-25T21:48:41;16.4;14;10.4
74428;PMS5003;62860;52.134;23.714;2022-08-25T21:53:41;14.8;12.2;9
74428;PMS5003;62860;52.134;23.714;2022-08-25T21:58:25;15.2;12.6;9.4
74428;PMS5003;62860;52.134;23.714;2022-08-25T22:03:21;18.2;14;9.4
74428;PMS5003;62860;52.134;23.714;2022-08-25T22:08:17;15.8;13;9.8
74428;PMS5003;62860;52.134;23.714;2022-08-25T22:13:07;15.8;13.8;10.2
74428;PMS5003;62860;52.134;23.714;2022-08-25T22:18:25;15;13;10.2
74428;PMS5003;62860;52.134;23.714;2022-08-25T22:23:05;14.8;13;10.8
74428;PMS5003;62860;52.134;23.714;2022-08-25T22:27:55;13.2;11.6;9
74428;PMS5003;62860;52.134;23.714;2022-08-25T22:33:11;13.2;12.6;9.6
74428;PMS5003;62860;52.134;23.714;2022-08-25T22:38:37;14.4;11.8;8.8
74428;PMS5003;62860;52.134;23.714;2022-08-25T22:43:25;13.8;12;8.8
74428;PMS5003;62860;52.134;23.714;2022-08-25T22:47:55;15.3;12.3;9.3
74428;PMS5003;62860;52.134;23.714;2022-08-25T22:52:55;15.4;12;9.6
74428;PMS5003;62860;52.134;23.714;2022-08-25T22:58:37;13.6;13;9.8
74428;PMS5003;62860;52.134;23.714;2022-08-25T23:03:33;14.4;13.2;9.2
74428;PMS5003;62860;52.134;23.714;2022-08-25T23:07:55;14.2;11.6;9.6
74428;PMS5003;62860;52.134;23.714;2022-08-25T23:13:05;14.8;12.4;9.6
74428;PMS5003;62860;52.134;23.714;2022-08-25T23:17:55;14;12.6;10
74428;PMS5003;62860;52.134;23.714;2022-08-25T23:22:55;16;13;10
74428;PMS5003;62860;52.134;23.714;2022-08-25T23:28:11;14;12;9.4
74428;PMS5003;62860;52.134;23.714;2022-08-25T23:33:11;14.2;13.2;9.2
74428;PMS5003;62860;52.134;23.714;2022-08-25T23:38:31;14.4;12.4;9.6
74428;PMS5003;62860;52.134;23.714;2022-08-25T23:43:17;15.8;14.4;9.2
74428;PMS5003;62860;52.134;23.714;2022-08-25T23:48:17;14;12.8;9.4
74428;PMS5003;62860;52.134;23.714;2022-08-25T23:53:37;14.4;12.6;9.4
74428;PMS5003;62860;52.134;23.714;2022-08-25T23:58:07;16.2;13.4;9.6
